Terminal Aerodrome Forecast
Issued by NWS Wilmington, NC

Home | Current Version | Previous Version | Text Only | Print | Product List | Glossary On
Versions: 1 2 3 4 5 6 7 8 9 10 11 12 13 14 15 16 17 18 19 20 21 22 23 24 25 26 27 28 29 30 31 32
000
FTUS42 KILM 050400 AAA
TAFILM
TAF AMD
KILM 050405Z 0504/0524 20013G22KT P6SM SCT009
      TEMPO 0504/0506 BKN009
     FM050600 21009KT 2SM BR BKN007 WS010/22035KT
     FM051400 23010G18KT P6SM VCSH SCT010 SCT035
     FM052100 36014G23KT P6SM -RA OVC012=

USA.gov is the U.S. government's official web portal to all federal, state and local government web resources and services.